Time;durP1;ratioP1;P1;durP2;ratioP2;P2;SDS_P1;SDS_P2;PMS_P1;PMS_P2;Temp;Humidity;BMP_temperature;BMP_pressure;BME280_temperature;BME280_humidity;BME280_pressure;Samples;Min_cycle;Max_cycle;Signal;HPM_P1;HPM_P2
2024/04/21 00:00:57;;;;;;;3.95;1.20;;;7.10;1.00;;;;;;5398187;26;20044;-74
2024/04/21 00:03:24;;;;;;;0.55;0.55;;;7.20;1.00;;;;;;5399809;26;20027;-75
2024/04/21 00:05:50;;;;;;;0.10;0.10;;;7.20;1.00;;;;;;5396186;26;20039;-75
2024/04/21 00:08:16;;;;;;;1.25;0.77;;;7.20;99.90;;;;;;5366818;26;20043;-81
2024/04/21 00:10:42;;;;;;;0.20;0.20;;;7.20;1.00;;;;;;5392094;26;20047;-75
2024/04/21 00:13:08;;;;;;;1.17;0.55;;;7.10;99.90;;;;;;5401180;26;20039;-74
2024/04/21 00:15:34;;;;;;;0.73;0.30;;;7.20;1.00;;;;;;5399147;26;20100;-75
2024/04/21 00:18:00;;;;;;;0.55;0.55;;;7.10;99.90;;;;;;5366902;26;20362;-74
2024/04/21 00:20:27;;;;;;;0.30;0.30;;;7.10;99.90;;;;;;5394890;26;20379;-75
2024/04/21 00:22:53;;;;;;;0.28;0.28;;;7.10;99.90;;;;;;5396461;26;20382;-74
2024/04/21 00:25:19;;;;;;;0.25;0.25;;;7.10;99.90;;;;;;5388575;26;20033;-75
2024/04/21 00:27:45;;;;;;;0.20;0.20;;;7.10;99.90;;;;;;5401372;26;20036;-75
2024/04/21 00:30:11;;;;;;;0.40;0.40;;;7.10;99.90;;;;;;5395303;26;20031;-74
2024/04/21 00:32:39;;;;;;;0.32;0.32;;;7.00;99.90;;;;;;5395137;26;20047;-74
2024/04/21 00:35:05;;;;;;;5.15;2.85;;;7.00;99.90;;;;;;5399458;26;20035;-74
2024/04/21 00:37:32;;;;;;;0.17;0.17;;;7.00;99.90;;;;;;5389154;26;20040;-77
2024/04/21 00:39:58;;;;;;;0.10;0.10;;;7.00;99.90;;;;;;5395372;26;20044;-74
2024/04/21 00:42:24;;;;;;;1.33;1.30;;;7.10;99.90;;;;;;5398316;26;20039;-74
2024/04/21 00:44:50;;;;;;;1.25;1.15;;;7.10;99.90;;;;;;5407394;26;20036;-74
2024/04/21 00:47:17;;;;;;;0.10;0.10;;;7.10;99.90;;;;;;5385578;26;20035;-79
2024/04/21 00:49:44;;;;;;;1.65;0.90;;;7.10;99.90;;;;;;5398594;26;20040;-75
2024/04/21 00:52:10;;;;;;;0.10;0.10;;;7.00;99.90;;;;;;5401256;26;20035;-74
2024/04/21 00:54:37;;;;;;;0.10;0.10;;;7.00;99.90;;;;;;5396339;26;20044;-74
2024/04/21 00:57:04;;;;;;;0.28;0.28;;;6.90;99.90;;;;;;5394989;26;20052;-74
2024/04/21 00:59:32;;;;;;;0.10;0.10;;;6.90;99.90;;;;;;5390608;26;20066;-74
2024/04/21 01:01:59;;;;;;;0.10;0.10;;;6.90;99.90;;;;;;5387317;26;20040;-75
2024/04/21 01:04:26;;;;;;;0.20;0.20;;;7.00;99.90;;;;;;5396287;26;20662;-76
2024/04/21 01:06:52;;;;;;;6.93;1.00;;;6.90;99.90;;;;;;5400830;26;20032;-74
2024/04/21 01:09:18;;;;;;;0.30;0.30;;;6.90;99.90;;;;;;5400458;26;20034;-80
2024/04/21 01:11:48;;;;;;;0.68;0.68;;;6.80;99.90;;;;;;5390806;26;20378;-75
2024/04/21 01:14:15;;;;;;;0.57;0.57;;;6.80;1.00;;;;;;5390797;26;20318;-79
2024/04/21 01:16:41;;;;;;;0.57;0.57;;;6.60;7.80;;;;;;5371861;26;20036;-74
2024/04/21 01:19:08;;;;;;;0.20;0.20;;;6.30;99.90;;;;;;5400447;26;20040;-73
2024/04/21 01:21:34;;;;;;;0.38;0.38;;;6.00;99.90;;;;;;5404341;26;20032;-73
2024/04/21 01:24:00;;;;;;;0.10;0.10;;;5.90;99.90;;;;;;5393210;26;20040;-74
2024/04/21 01:26:26;;;;;;;0.35;0.35;;;5.70;99.90;;;;;;5390710;26;20044;-75
2024/04/21 01:28:52;;;;;;;0.30;0.30;;;5.60;1.00;;;;;;5394645;26;20036;-77
2024/04/21 01:31:18;;;;;;;0.30;0.30;;;5.50;1.00;;;;;;5401209;26;20040;-78
2024/04/21 01:33:45;;;;;;;1.75;1.15;;;5.50;1.00;;;;;;5398219;26;20036;-75
2024/04/21 01:36:11;;;;;;;0.20;0.20;;;5.50;1.00;;;;;;5391413;26;20387;-75
2024/04/21 01:38:37;;;;;;;1.55;0.65;;;5.50;10.60;;;;;;5391320;26;20448;-75
2024/04/21 01:41:03;;;;;;;0.10;0.10;;;5.40;30.00;;;;;;5392889;26;20035;-77
2024/04/21 01:43:29;;;;;;;3.90;1.20;;;5.40;48.30;;;;;;5401981;26;20028;-75
2024/04/21 01:45:56;;;;;;;0.10;0.10;;;5.30;84.10;;;;;;5397379;26;20031;-75
2024/04/21 01:48:22;;;;;;;0.35;0.35;;;5.40;99.90;;;;;;5392925;26;20031;-75
2024/04/21 01:50:48;;;;;;;0.20;0.20;;;5.40;99.90;;;;;;5390031;26;20036;-75
2024/04/21 01:53:15;;;;;;;0.20;0.20;;;5.40;99.90;;;;;;5395663;26;20383;-73
2024/04/21 01:55:41;;;;;;;0.10;0.10;;;5.40;99.90;;;;;;5397133;26;20044;-75
2024/04/21 01:58:07;;;;;;;0.20;0.20;;;5.40;99.90;;;;;;5399438;26;20361;-75
2024/04/21 02:00:35;;;;;;;0.30;0.30;;;5.40;99.90;;;;;;5370307;26;20044;-73
2024/04/21 02:03:02;;;;;;;0.10;0.10;;;5.30;99.90;;;;;;5390727;26;20210;-75
2024/04/21 02:05:28;;;;;;;0.10;0.10;;;5.30;99.90;;;;;;5402069;26;20383;-74
2024/04/21 02:07:54;;;;;;;1.00;0.80;;;5.30;99.90;;;;;;5393937;26;20536;-74
2024/04/21 02:10:21;;;;;;;0.10;0.10;;;5.30;99.90;;;;;;5401654;26;20471;-80
2024/04/21 02:12:47;;;;;;;0.10;0.10;;;5.30;99.90;;;;;;5405115;26;20037;-75
2024/04/21 02:15:13;;;;;;;0.10;0.10;;;5.20;99.90;;;;;;5372992;26;20008;-76
2024/04/21 02:17:39;;;;;;;0.73;0.50;;;5.20;99.90;;;;;;5400145;26;20048;-74
2024/04/21 02:20:06;;;;;;;0.40;0.40;;;5.10;99.90;;;;;;5397723;26;20036;-76
2024/04/21 02:22:32;;;;;;;0.10;0.10;;;5.00;99.90;;;;;;5399806;26;20071;-73
2024/04/21 02:24:58;;;;;;;0.10;0.10;;;5.00;98.90;;;;;;5393553;26;20036;-73
2024/04/21 02:27:25;;;;;;;0.10;0.10;;;4.90;90.10;;;;;;5389147;26;20044;-73
2024/04/21 02:29:51;;;;;;;0.55;0.55;;;4.80;65.10;;;;;;5374922;26;20035;-73
2024/04/21 02:32:17;;;;;;;0.10;0.10;;;4.80;1.00;;;;;;5402331;26;20043;-73
2024/04/21 02:34:43;;;;;;;0.10;0.10;;;4.70;1.00;;;;;;5402633;26;20051;-73
2024/04/21 02:37:09;;;;;;;0.10;0.10;;;4.60;1.00;;;;;;5394783;26;20032;-73
2024/04/21 02:39:36;;;;;;;0.10;0.10;;;4.60;1.00;;;;;;5389813;26;20470;-73
2024/04/21 02:42:02;;;;;;;0.10;0.10;;;4.60;1.00;;;;;;5398540;26;20036;-73
2024/04/21 02:44:28;;;;;;;0.10;0.10;;;4.50;1.00;;;;;;5400091;26;20051;-75
2024/04/21 02:46:54;;;;;;;0.10;0.10;;;4.50;1.00;;;;;;5405811;26;20047;-73
2024/04/21 02:49:21;;;;;;;0.80;0.30;;;4.40;1.00;;;;;;5399515;26;20377;-78
2024/04/21 02:51:47;;;;;;;0.10;0.10;;;4.40;1.00;;;;;;5388234;26;20027;-75
2024/04/21 02:54:13;;;;;;;0.20;0.20;;;4.40;1.00;;;;;;5395605;26;20035;-74
2024/04/21 02:56:39;;;;;;;0.32;0.25;;;4.40;1.00;;;;;;5401895;26;20048;-73
2024/04/21 02:59:06;;;;;;;0.10;0.10;;;4.30;1.00;;;;;;5403455;26;20036;-74
2024/04/21 03:01:32;;;;;;;0.20;0.20;;;4.30;1.00;;;;;;5399650;26;20104;-74
2024/04/21 03:03:58;;;;;;;0.10;0.10;;;4.30;1.00;;;;;;5395417;26;20035;-75
2024/04/21 03:06:24;;;;;;;0.10;0.10;;;4.30;1.00;;;;;;5387243;26;20024;-76
2024/04/21 03:08:50;;;;;;;0.22;0.22;;;4.30;1.00;;;;;;5402721;26;20039;-72
2024/04/21 03:11:16;;;;;;;0.10;0.10;;;4.30;1.00;;;;;;5368169;26;20028;-73
2024/04/21 03:13:46;;;;;;;0.10;0.10;;;4.30;1.00;;;;;;5393491;26;20044;-77
2024/04/21 03:16:12;;;;;;;0.10;0.10;;;4.20;1.00;;;;;;5391558;26;20036;-75
2024/04/21 03:18:38;;;;;;;0.10;0.10;;;4.20;1.00;;;;;;5394443;26;20040;-73
2024/04/21 03:21:04;;;;;;;0.10;0.10;;;4.20;1.00;;;;;;5395706;26;20362;-75
2024/04/21 03:23:30;;;;;;;0.30;0.30;;;4.20;1.00;;;;;;5369801;26;20031;-73
2024/04/21 03:25:57;;;;;;;0.10;0.10;;;4.10;1.00;;;;;;5396099;26;20028;-74
2024/04/21 03:28:23;;;;;;;0.10;0.10;;;4.10;1.00;;;;;;5398498;26;20482;-80
2024/04/21 03:30:56;;;;;;;0.10;0.10;;;4.10;1.00;;;;;;5395168;26;20074;-73
2024/04/21 03:33:22;;;;;;;0.20;0.20;;;4.10;1.00;;;;;;5397660;26;20055;-79
2024/04/21 03:36:07;;;;;;;0.10;0.10;;;4.20;1.00;;;;;;5400873;26;20031;-74
2024/04/21 03:38:34;;;;;;;0.20;0.20;;;4.20;1.00;;;;;;5397886;26;20032;-73
2024/04/21 03:41:01;;;;;;;0.10;0.10;;;4.20;1.00;;;;;;5395791;26;20040;-75
2024/04/21 03:43:28;;;;;;;0.10;0.10;;;4.20;99.90;;;;;;5398461;26;20031;-74
2024/04/21 03:45:55;;;;;;;0.20;0.20;;;4.20;99.90;;;;;;5398182;26;20040;-74
2024/04/21 03:48:22;;;;;;;0.10;0.10;;;4.10;99.90;;;;;;5396308;26;20032;-76
2024/04/21 03:50:49;;;;;;;0.10;0.10;;;4.10;99.90;;;;;;5396323;26;20028;-75
2024/04/21 03:53:17;;;;;;;0.22;0.22;;;4.10;99.90;;;;;;5395508;26;20036;-75
2024/04/21 03:55:43;;;;;;;1.88;0.73;;;4.10;1.00;;;;;;5389135;26;20040;-74
2024/04/21 03:58:11;;;;;;;0.20;0.20;;;4.10;1.00;;;;;;5401561;26;20413;-74
2024/04/21 04:00:38;;;;;;;0.10;0.10;;;4.10;1.00;;;;;;5365779;26;20477;-74
2024/04/21 04:03:04;;;;;;;0.35;0.35;;;4.00;1.00;;;;;;5400958;26;20033;-74
2024/04/21 04:05:30;;;;;;;0.38;0.22;;;4.00;99.90;;;;;;5401777;26;20031;-74
2024/04/21 04:07:56;;;;;;;0.25;0.25;;;4.10;99.90;;;;;;5386786;26;20041;-73
2024/04/21 04:10:23;;;;;;;0.30;0.30;;;4.00;99.90;;;;;;5398739;26;20043;-75
2024/04/21 04:12:49;;;;;;;0.17;0.17;;;4.00;99.90;;;;;;5402000;26;20031;-74
2024/04/21 04:15:16;;;;;;;0.13;0.13;;;4.00;99.90;;;;;;5397351;26;20044;-74
2024/04/21 04:17:42;;;;;;;0.13;0.13;;;4.00;99.90;;;;;;5401127;26;20039;-75
2024/04/21 04:20:12;;;;;;;0.28;0.28;;;4.00;99.90;;;;;;5392478;26;20027;-74
2024/04/21 04:22:38;;;;;;;0.10;0.10;;;4.00;99.90;;;;;;5398090;26;20031;-74
2024/04/21 04:25:05;;;;;;;0.25;0.25;;;4.00;99.90;;;;;;5400779;26;20481;-74
2024/04/21 04:27:32;;;;;;;0.20;0.20;;;4.00;99.90;;;;;;5397668;26;20028;-75
2024/04/21 04:29:58;;;;;;;0.30;0.30;;;4.00;99.90;;;;;;5397973;26;20040;-74
2024/04/21 04:32:27;;;;;;;0.43;0.43;;;4.00;1.00;;;;;;5384157;26;20493;-81
2024/04/21 04:34:53;;;;;;;0.17;0.17;;;4.00;1.00;;;;;;5394535;26;20032;-73
2024/04/21 04:37:20;;;;;;;0.10;0.10;;;4.10;1.00;;;;;;5381231;26;20039;-74
2024/04/21 04:39:46;;;;;;;9.75;2.58;;;4.00;1.00;;;;;;5399330;26;20046;-74
2024/04/21 04:42:12;;;;;;;0.40;0.40;;;4.00;99.90;;;;;;5386875;26;20032;-74
2024/04/21 04:44:38;;;;;;;11.10;1.30;;;4.00;99.90;;;;;;5393243;26;20036;-73
2024/04/21 04:47:05;;;;;;;0.25;0.25;;;4.00;99.90;;;;;;5395701;26;20043;-77
2024/04/21 04:49:31;;;;;;;0.32;0.32;;;4.00;99.90;;;;;;5398754;26;20028;-73
2024/04/21 04:51:57;;;;;;;0.63;0.63;;;4.00;99.90;;;;;;5398174;26;20388;-75
2024/04/21 04:54:24;;;;;;;3.10;2.78;;;4.00;99.90;;;;;;5408935;26;20035;-74
2024/04/21 04:56:53;;;;;;;4.47;2.20;;;4.00;99.90;;;;;;5362113;26;20004;-74
2024/04/21 04:59:19;;;;;;;2.83;1.50;;;4.00;99.90;;;;;;5388732;26;20028;-73
2024/04/21 05:01:45;;;;;;;0.20;0.20;;;4.00;99.90;;;;;;5394246;26;20055;-74
2024/04/21 05:04:12;;;;;;;0.50;0.50;;;4.00;99.90;;;;;;5401015;26;20039;-73
2024/04/21 05:06:38;;;;;;;0.40;0.40;;;4.00;99.90;;;;;;5398134;26;20028;-73
2024/04/21 05:09:04;;;;;;;10.55;1.20;;;4.00;99.90;;;;;;5403129;26;20380;-74
2024/04/21 05:11:31;;;;;;;0.40;0.40;;;4.00;99.90;;;;;;5400820;26;20036;-79
2024/04/21 05:13:57;;;;;;;0.10;0.10;;;4.10;99.90;;;;;;5374046;26;20339;-74
2024/04/21 05:16:24;;;;;;;0.55;0.43;;;4.10;99.90;;;;;;5377608;26;20027;-74
2024/04/21 05:18:50;;;;;;;0.15;0.15;;;4.20;99.90;;;;;;5401042;26;20043;-74
2024/04/21 05:21:16;;;;;;;0.75;0.73;;;4.30;99.90;;;;;;5395394;26;20035;-73
2024/04/21 05:23:43;;;;;;;0.43;0.43;;;4.30;99.90;;;;;;5395413;26;20047;-74
2024/04/21 05:26:09;;;;;;;0.55;0.55;;;4.30;99.90;;;;;;5395486;26;20031;-73
2024/04/21 05:28:35;;;;;;;0.45;0.45;;;4.20;99.90;;;;;;5395264;26;20028;-74
2024/04/21 05:31:01;;;;;;;0.28;0.28;;;4.10;99.90;;;;;;5380054;26;20004;-75
2024/04/21 05:33:28;;;;;;;0.10;0.10;;;4.10;99.90;;;;;;5375291;26;20036;-78
2024/04/21 05:35:54;;;;;;;0.20;0.20;;;4.00;99.90;;;;;;5394168;26;20063;-75
2024/04/21 05:38:21;;;;;;;0.85;0.85;;;4.10;99.90;;;;;;5408242;26;20036;-74
2024/04/21 05:40:47;;;;;;;0.17;0.17;;;4.60;99.90;;;;;;5412462;26;20043;-74
2024/04/21 05:43:14;;;;;;;0.20;0.20;;;4.80;99.10;;;;;;5407839;26;20035;-74
2024/04/21 05:45:40;;;;;;;0.98;0.75;;;5.10;23.90;;;;;;5400393;26;20031;-74
2024/04/21 05:48:06;;;;;;;0.28;0.28;;;5.30;1.00;;;;;;5401414;26;20048;-75
2024/04/21 05:50:32;;;;;;;3.63;1.58;;;5.40;1.00;;;;;;5402786;26;20381;-82
2024/04/21 05:52:59;;;;;;;1.33;1.23;;;5.50;1.00;;;;;;5401421;26;20040;-74
2024/04/21 05:55:25;;;;;;;1.42;1.15;;;5.70;99.90;;;;;;5396499;26;20031;-74
2024/04/21 05:57:51;;;;;;;0.22;0.22;;;5.90;99.90;;;;;;5401641;26;20047;-74
2024/04/21 06:00:17;;;;;;;0.10;0.10;;;6.10;99.90;;;;;;5392502;26;20031;-73
2024/04/21 06:02:43;;;;;;;0.73;0.73;;;6.30;99.90;;;;;;5398299;26;20045;-74
2024/04/21 06:05:10;;;;;;;2.65;0.38;;;6.00;99.90;;;;;;5377900;26;20027;-75
2024/04/21 06:07:36;;;;;;;0.43;0.43;;;6.10;99.90;;;;;;5402678;26;20031;-75
2024/04/21 06:10:02;;;;;;;2.85;1.05;;;6.20;99.90;;;;;;5389099;26;20032;-75
2024/04/21 06:12:28;;;;;;;0.35;0.35;;;6.40;99.90;;;;;;5398310;26;20039;-75
2024/04/21 06:14:54;;;;;;;0.17;0.17;;;6.40;84.90;;;;;;5399782;26;20043;-75
2024/04/21 06:17:20;;;;;;;0.30;0.30;;;6.40;51.50;;;;;;5404075;26;20373;-75
2024/04/21 06:19:47;;;;;;;0.55;0.32;;;6.30;98.80;;;;;;5378383;26;20048;-75
2024/04/21 06:22:14;;;;;;;0.35;0.35;;;6.30;50.20;;;;;;5386679;26;20028;-75
2024/04/21 06:24:40;;;;;;;0.45;0.43;;;6.30;97.80;;;;;;5399006;26;20373;-75
2024/04/21 06:27:06;;;;;;;0.38;0.17;;;6.40;96.50;;;;;;5406559;26;20344;-76
2024/04/21 06:29:32;;;;;;;0.57;0.57;;;6.30;28.60;;;;;;5405566;26;20028;-77
2024/04/21 06:31:59;;;;;;;1.08;1.00;;;6.50;68.30;;;;;;5415761;26;20035;-75
2024/04/21 06:34:25;;;;;;;0.32;0.32;;;6.70;46.50;;;;;;5406508;26;20386;-77
2024/04/21 06:36:51;;;;;;;0.30;0.30;;;6.80;59.00;;;;;;5411499;26;20036;-75
2024/04/21 06:39:17;;;;;;;0.50;0.50;;;6.70;1.00;;;;;;5407130;26;20040;-76
2024/04/21 06:41:43;;;;;;;3.40;1.75;;;6.80;1.50;;;;;;5377584;26;20023;-75
2024/04/21 06:44:09;;;;;;;1.40;1.30;;;6.60;1.00;;;;;;5410345;26;20031;-72
2024/04/21 06:46:35;;;;;;;5.15;0.77;;;6.40;1.00;;;;;;5399677;26;20341;-82
2024/04/21 06:49:02;;;;;;;1.17;1.08;;;6.00;4.00;;;;;;5396457;26;20028;-77
2024/04/21 06:51:28;;;;;;;0.10;0.10;;;5.90;99.90;;;;;;5409300;26;20031;-74
2024/04/21 06:53:55;;;;;;;0.52;0.52;;;5.90;90.60;;;;;;5405903;26;20740;-77
2024/04/21 06:56:21;;;;;;;0.15;0.15;;;6.40;16.80;;;;;;5412454;26;20037;-75
2024/04/21 06:58:47;;;;;;;2.72;0.55;;;6.80;1.00;;;;;;5367914;26;20039;-75
2024/04/21 07:01:13;;;;;;;0.15;0.15;;;6.80;1.00;;;;;;5398087;26;20040;-77
2024/04/21 07:03:39;;;;;;;0.20;0.20;;;6.90;1.00;;;;;;5404455;26;20364;-81
2024/04/21 07:06:05;;;;;;;0.30;0.30;;;6.60;1.00;;;;;;5405881;26;20035;-75
2024/04/21 07:08:32;;;;;;;1.05;0.73;;;6.80;1.00;;;;;;5400592;26;20040;-76
2024/04/21 07:10:58;;;;;;;0.10;0.10;;;6.50;1.00;;;;;;5400699;26;20485;-74
2024/04/21 07:13:25;;;;;;;1.00;0.52;;;6.30;1.00;;;;;;5401348;26;20035;-75
2024/04/21 07:15:52;;;;;;;0.68;0.52;;;6.10;1.00;;;;;;5405200;26;20036;-77
2024/04/21 07:18:18;;;;;;;0.20;0.20;;;6.30;1.00;;;;;;5404586;26;20012;-76
2024/04/21 07:20:45;;;;;;;2.50;0.82;;;6.80;1.00;;;;;;5395746;26;20043;-75
2024/04/21 07:23:11;;;;;;;0.47;0.45;;;7.10;1.00;;;;;;5403715;26;20470;-76
2024/04/21 07:25:37;;;;;;;0.20;0.20;;;7.20;1.00;;;;;;5405315;26;20044;-82
2024/04/21 07:28:03;;;;;;;0.10;0.10;;;7.20;99.90;;;;;;5398114;26;20062;-77
2024/04/21 07:30:30;;;;;;;0.43;0.43;;;6.60;1.00;;;;;;5401235;26;20384;-74
2024/04/21 07:32:56;;;;;;;0.35;0.35;;;6.60;1.00;;;;;;5402642;26;20035;-78
2024/04/21 07:35:22;;;;;;;0.73;0.73;;;6.90;99.90;;;;;;5406995;26;20053;-76
2024/04/21 07:37:48;;;;;;;0.10;0.10;;;7.00;99.90;;;;;;5407123;26;20035;-76
2024/04/21 07:40:16;;;;;;;0.13;0.13;;;7.10;99.90;;;;;;5413906;26;20039;-75
2024/04/21 07:42:43;;;;;;;0.10;0.10;;;7.20;99.90;;;;;;5406736;26;20039;-76
2024/04/21 07:45:09;;;;;;;0.10;0.10;;;7.10;99.90;;;;;;5403456;26;20043;-76
2024/04/21 07:47:35;;;;;;;0.20;0.20;;;7.00;99.90;;;;;;5394699;26;20031;-77
2024/04/21 07:50:02;;;;;;;0.10;0.10;;;7.10;99.90;;;;;;5381002;26;20036;-76
2024/04/21 07:52:28;;;;;;;0.20;0.20;;;7.00;99.90;;;;;;5404845;26;20381;-74
2024/04/21 07:54:55;;;;;;;0.10;0.10;;;6.80;99.90;;;;;;5405055;26;20432;-76
2024/04/21 07:57:21;;;;;;;0.10;0.10;;;7.80;99.90;;;;;;5409587;26;20032;-75
2024/04/21 07:59:47;;;;;;;0.10;0.10;;;8.50;99.90;;;;;;5407126;26;20043;-79
2024/04/21 08:02:13;;;;;;;0.10;0.10;;;9.40;99.90;;;;;;5398414;26;20393;-76
2024/04/21 08:04:39;;;;;;;0.30;0.30;;;8.90;99.90;;;;;;5402766;26;20039;-76
2024/04/21 08:07:06;;;;;;;0.30;0.30;;;8.10;99.90;;;;;;5403006;26;20040;-75
2024/04/21 08:09:34;;;;;;;0.10;0.10;;;7.70;99.90;;;;;;5396398;26;20039;-76
2024/04/21 08:12:01;;;;;;;0.10;0.10;;;7.20;99.90;;;;;;5398792;26;20035;-76
2024/04/21 08:14:28;;;;;;;0.17;0.17;;;6.90;99.90;;;;;;5403104;26;20044;-80
2024/04/21 08:16:56;;;;;;;0.10;0.10;;;6.70;99.90;;;;;;5394984;26;20278;-74
2024/04/21 08:19:22;;;;;;;0.17;0.17;;;7.00;99.90;;;;;;5399724;26;20031;-74
2024/04/21 08:21:48;;;;;;;0.10;0.10;;;7.20;99.90;;;;;;5397922;26;20398;-76
2024/04/21 08:24:14;;;;;;;0.57;0.57;;;8.00;99.90;;;;;;5405615;26;20060;-76
2024/04/21 08:26:40;;;;;;;0.10;0.10;;;8.30;99.90;;;;;;5406257;26;20035;-75
2024/04/21 08:29:07;;;;;;;0.20;0.20;;;8.50;99.90;;;;;;5389750;26;20044;-78
2024/04/21 08:31:33;;;;;;;0.20;0.20;;;9.30;99.90;;;;;;5402975;26;20036;-73
2024/04/21 08:34:00;;;;;;;0.10;0.10;;;8.70;99.90;;;;;;5401103;26;20052;-76
2024/04/21 08:36:26;;;;;;;0.10;0.10;;;8.80;99.90;;;;;;5394897;26;20044;-75
2024/04/21 08:38:52;;;;;;;0.22;0.20;;;8.20;99.90;;;;;;5400389;26;20056;-74
2024/04/21 08:41:21;;;;;;;0.20;0.20;;;7.50;99.90;;;;;;5398663;26;20035;-74
2024/04/21 08:43:48;;;;;;;0.10;0.10;;;7.00;99.90;;;;;;5374694;26;20039;-75
2024/04/21 08:46:16;;;;;;;0.10;0.10;;;7.00;99.90;;;;;;5396653;26;20043;-74
2024/04/21 08:48:43;;;;;;;0.10;0.10;;;7.00;99.90;;;;;;5399212;26;20032;-74
2024/04/21 08:51:14;;;;;;;0.20;0.20;;;6.70;99.90;;;;;;5392490;26;20044;-77
2024/04/21 08:53:41;;;;;;;0.10;0.10;;;6.80;99.90;;;;;;5399988;26;20039;-79
2024/04/21 08:56:17;;;;;;;0.30;0.30;;;6.90;99.90;;;;;;5402255;26;20047;-74
2024/04/21 08:58:49;;;;;;;0.13;0.13;;;6.90;99.90;;;;;;5411776;26;20044;-74
2024/04/21 09:01:19;;;;;;;9.32;0.63;;;6.60;99.90;;;;;;5398346;26;20031;-73
2024/04/21 09:03:50;;;;;;;0.30;0.30;;;6.40;99.90;;;;;;5398075;26;20040;-73
2024/04/21 09:06:19;;;;;;;0.22;0.22;;;6.60;99.90;;;;;;5391175;26;20015;-76
2024/04/21 09:08:45;;;;;;;0.90;0.90;;;7.30;99.90;;;;;;5410647;26;20035;-76
2024/04/21 09:11:11;;;;;;;0.20;0.20;;;8.10;99.90;;;;;;5407060;26;20080;-76
2024/04/21 09:13:37;;;;;;;0.20;0.20;;;8.20;99.90;;;;;;5410530;26;20354;-75
2024/04/21 09:16:04;;;;;;;0.10;0.10;;;8.20;99.90;;;;;;5383952;26;20367;-75
2024/04/21 09:18:30;;;;;;;0.20;0.20;;;7.70;99.90;;;;;;5411943;26;20445;-73
2024/04/21 09:20:56;;;;;;;0.10;0.10;;;7.30;99.90;;;;;;5404194;26;20473;-75
2024/04/21 09:23:22;;;;;;;0.30;0.30;;;7.30;99.90;;;;;;5404926;26;20354;-75
2024/04/21 09:25:49;;;;;;;0.10;0.10;;;7.50;99.90;;;;;;5403429;26;20045;-75
2024/04/21 09:28:16;;;;;;;0.10;0.10;;;7.60;99.90;;;;;;5393237;26;20040;-75
2024/04/21 09:30:42;;;;;;;0.10;0.10;;;7.30;99.90;;;;;;5400965;26;20158;-74
2024/04/21 09:33:08;;;;;;;0.40;0.40;;;7.40;99.90;;;;;;5369039;26;20047;-76
2024/04/21 09:35:37;;;;;;;0.10;0.10;;;7.30;99.90;;;;;;5399057;26;20044;-77
2024/04/21 09:38:04;;;;;;;0.10;0.10;;;7.10;99.90;;;;;;5402768;26;20047;-76
2024/04/21 09:40:31;;;;;;;0.10;0.10;;;6.90;99.90;;;;;;5366059;26;20036;-73
2024/04/21 09:43:00;;;;;;;0.28;0.28;;;6.70;99.90;;;;;;5397319;26;20049;-75
2024/04/21 09:45:28;;;;;;;0.10;0.10;;;6.60;99.90;;;;;;5394531;26;20036;-74
2024/04/21 09:47:55;;;;;;;1.15;1.05;;;6.80;99.90;;;;;;5392688;26;20031;-73
2024/04/21 09:50:23;;;;;;;0.10;0.10;;;7.00;99.90;;;;;;5410549;26;20032;-73
2024/04/21 09:52:52;;;;;;;0.30;0.30;;;6.50;99.90;;;;;;5372273;26;20047;-75
2024/04/21 09:55:18;;;;;;;0.15;0.15;;;6.80;1.00;;;;;;5402174;26;20040;-73
2024/04/21 09:57:49;;;;;;;0.32;0.32;;;7.10;1.00;;;;;;5405905;26;20040;-75
2024/04/21 10:00:18;;;;;;;0.45;0.45;;;7.70;99.90;;;;;;5406019;26;20057;-77
2024/04/21 10:02:49;;;;;;;0.57;0.50;;;7.20;1.00;;;;;;5403246;26;20055;-76
2024/04/21 10:05:18;;;;;;;0.80;0.40;;;7.60;1.00;;;;;;5406158;26;20041;-76
2024/04/21 10:07:49;;;;;;;0.20;0.20;;;7.50;99.90;;;;;;5402430;26;20044;-78
2024/04/21 10:10:20;;;;;;;0.10;0.10;;;7.30;99.90;;;;;;5373340;26;20040;-75
2024/04/21 10:12:47;;;;;;;0.10;0.10;;;7.10;99.90;;;;;;5395818;26;20469;-77
2024/04/21 10:15:17;;;;;;;0.15;0.15;;;7.00;99.90;;;;;;5406540;26;20441;-75
2024/04/21 10:18:02;;;;;;;0.40;0.40;;;7.00;99.90;;;;;;5397208;26;20036;-76
2024/04/21 10:20:36;;;;;;;0.10;0.10;;;7.10;99.90;;;;;;5398600;26;20043;-75
2024/04/21 10:23:11;;;;;;;0.10;0.10;;;7.20;99.90;;;;;;5393181;26;20418;-76
2024/04/21 10:25:40;;;;;;;0.25;0.25;;;7.40;99.90;;;;;;5395864;26;20045;-81
2024/04/21 10:28:07;;;;;;;0.10;0.10;;;7.20;99.90;;;;;;5401531;26;20039;-77
2024/04/21 10:30:34;;;;;;;0.10;0.10;;;7.00;1.00;;;;;;5399986;26;20043;-77
2024/04/21 10:33:02;;;;;;;0.20;0.20;;;6.90;99.90;;;;;;5394465;26;20032;-77
2024/04/21 10:35:46;;;;;;;0.65;0.55;;;6.80;1.00;;;;;;5390884;26;20090;-76
2024/04/21 10:38:13;;;;;;;0.10;0.10;;;6.70;1.00;;;;;;5394144;26;20494;-76
2024/04/21 10:40:44;;;;;;;1.27;0.17;;;6.50;81.50;;;;;;5392622;26;20492;-78
2024/04/21 10:43:10;;;;;;;0.10;0.10;;;6.20;99.90;;;;;;5392202;26;20032;-76
2024/04/21 10:45:38;;;;;;;0.22;0.22;;;6.20;99.90;;;;;;5391862;26;20035;-77
2024/04/21 10:48:06;;;;;;;0.10;0.10;;;6.20;99.90;;;;;;5398019;26;20028;-78
2024/04/21 10:50:34;;;;;;;0.17;0.17;;;6.40;99.90;;;;;;5392825;26;20032;-76
2024/04/21 10:53:01;;;;;;;0.10;0.10;;;6.00;99.90;;;;;;5395851;26;20024;-76
2024/04/21 10:55:31;;;;;;;0.10;0.10;;;6.00;99.90;;;;;;5390191;26;20040;-76
2024/04/21 10:57:58;;;;;;;0.17;0.17;;;6.00;99.90;;;;;;5391225;26;20036;-76
2024/04/21 11:00:24;;;;;;;0.32;0.32;;;6.00;99.90;;;;;;5363419;26;20269;-78
2024/04/21 11:02:51;;;;;;;0.13;0.13;;;6.10;99.90;;;;;;5393094;26;20036;-77
2024/04/21 11:05:17;;;;;;;0.20;0.20;;;5.90;99.90;;;;;;5400272;26;20043;-77
2024/04/21 11:07:44;;;;;;;0.20;0.20;;;5.90;99.90;;;;;;5396355;26;20539;-77
2024/04/21 11:10:11;;;;;;;0.30;0.30;;;5.10;19.60;;;;;;5391169;26;20043;-78
2024/04/21 11:12:37;;;;;;;0.30;0.20;;;4.80;99.90;;;;;;5372567;26;20039;-76
2024/04/21 11:15:04;;;;;;;0.13;0.13;;;4.70;99.90;;;;;;5395555;26;20051;-75
2024/04/21 11:17:32;;;;;;;0.30;0.30;;;4.70;99.90;;;;;;5398513;26;20039;-76
2024/04/21 11:19:58;;;;;;;0.10;0.10;;;5.00;99.90;;;;;;5396230;26;20481;-76
2024/04/21 11:22:26;;;;;;;0.20;0.20;;;5.00;99.90;;;;;;5390155;26;20045;-76
2024/04/21 11:24:53;;;;;;;0.10;0.10;;;4.90;99.90;;;;;;5397633;26;20496;-76
2024/04/21 11:27:19;;;;;;;0.30;0.30;;;5.00;99.90;;;;;;5384288;26;20390;-75
2024/04/21 11:29:47;;;;;;;0.20;0.20;;;5.10;99.90;;;;;;5355597;26;20425;-77
2024/04/21 11:32:14;;;;;;;0.10;0.10;;;5.10;99.90;;;;;;5382469;26;20012;-78
2024/04/21 11:34:41;;;;;;;0.50;0.50;;;4.90;99.90;;;;;;5401822;26;20047;-78
2024/04/21 11:37:17;;;;;;;0.30;0.30;;;4.90;99.90;;;;;;5388936;26;20039;-77
2024/04/21 11:39:43;;;;;;;0.40;0.40;;;4.70;99.90;;;;;;5391570;26;20040;-77
2024/04/21 11:42:10;;;;;;;0.20;0.20;;;4.70;99.90;;;;;;5394882;26;20467;-76
2024/04/21 11:44:36;;;;;;;0.10;0.10;;;4.60;1.00;;;;;;5392244;26;20481;-76
2024/04/21 11:47:02;;;;;;;0.17;0.17;;;4.60;1.00;;;;;;5382201;26;20018;-76
2024/04/21 11:49:28;;;;;;;0.20;0.20;;;4.60;1.00;;;;;;5394533;26;20039;-78
2024/04/21 11:51:55;;;;;;;0.20;0.20;;;4.60;1.00;;;;;;5397598;26;20040;-76
2024/04/21 11:54:21;;;;;;;0.15;0.15;;;4.60;1.00;;;;;;5393400;26;20410;-77
2024/04/21 11:56:47;;;;;;;0.40;0.40;;;4.90;1.00;;;;;;5387892;26;20032;-77
2024/04/21 11:59:13;;;;;;;0.10;0.10;;;4.90;1.00;;;;;;5394307;26;20031;-78
2024/04/21 12:01:39;;;;;;;0.28;0.28;;;5.00;1.00;;;;;;5393738;26;20035;-76
2024/04/21 12:04:06;;;;;;;0.10;0.10;;;5.00;1.00;;;;;;5392096;26;20036;-76
2024/04/21 12:06:32;;;;;;;0.10;0.10;;;4.60;1.00;;;;;;5366280;26;20044;-78
2024/04/21 12:08:58;;;;;;;0.25;0.25;;;4.70;1.00;;;;;;5396311;26;20056;-76
2024/04/21 12:11:24;;;;;;;0.20;0.20;;;4.70;1.00;;;;;;5389397;26;20382;-74
2024/04/21 12:13:52;;;;;;;0.35;0.35;;;4.70;1.00;;;;;;5391384;26;20040;-76
2024/04/21 12:16:18;;;;;;;0.10;0.10;;;4.70;1.00;;;;;;5392751;26;20375;-74
2024/04/21 12:18:44;;;;;;;0.30;0.30;;;4.80;1.00;;;;;;5391300;26;20040;-75
2024/04/21 12:21:10;;;;;;;0.20;0.20;;;4.70;1.00;;;;;;5392887;26;20048;-77
2024/04/21 12:23:36;;;;;;;0.28;0.28;;;4.70;1.00;;;;;;5394026;26;20363;-75
2024/04/21 12:26:03;;;;;;;0.50;0.25;;;4.60;1.00;;;;;;5388441;26;20055;-77
2024/04/21 12:28:29;;;;;;;0.20;0.20;;;4.50;1.00;;;;;;5354826;26;20022;-77
2024/04/21 12:31:00;;;;;;;0.45;0.45;;;4.30;1.00;;;;;;5389369;26;20035;-74
2024/04/21 12:33:26;;;;;;;;;;;4.10;1.00;;;;;;5393434;26;20040;-74
2024/04/21 12:35:52;;;;;;;0.10;0.10;;;4.00;1.00;;;;;;5365744;26;19954;-74
2024/04/21 12:38:18;;;;;;;0.40;0.40;;;4.00;1.00;;;;;;5398418;26;20047;-76
2024/04/21 12:40:45;;;;;;;0.38;0.38;;;4.00;1.00;;;;;;5403142;26;20039;-76
2024/04/21 12:43:11;;;;;;;0.30;0.30;;;4.00;40.50;;;;;;5392783;26;20039;-76
2024/04/21 12:45:37;;;;;;;0.10;0.10;;;4.20;99.90;;;;;;5392782;26;20036;-76
2024/04/21 12:48:04;;;;;;;0.30;0.30;;;3.90;45.00;;;;;;5389658;26;20047;-75
2024/04/21 12:50:30;;;;;;;0.20;0.20;;;3.90;99.90;;;;;;5388701;26;20043;-74
2024/04/21 12:52:56;;;;;;;0.20;0.20;;;3.90;99.90;;;;;;5343212;26;20498;-76
2024/04/21 12:55:22;;;;;;;0.20;0.20;;;3.80;99.90;;;;;;5327053;26;20061;-75
2024/04/21 12:57:49;;;;;;;0.25;0.25;;;3.90;99.90;;;;;;5319996;26;20045;-77